createdAt,value
2018-12-25T00:01:23.704Z,58.30
2018-12-25T00:03:52.175Z,58.60
2018-12-25T00:06:20.599Z,58.90
2018-12-25T00:08:49.056Z,58.90
2018-12-25T00:11:17.615Z,58.60
2018-12-25T00:13:46.211Z,58.80
2018-12-25T00:16:17.614Z,58.20
2018-12-25T00:18:46.067Z,58.80
2018-12-25T00:21:14.576Z,58.90
2018-12-25T00:23:43.107Z,59.20
2018-12-25T00:26:11.596Z,58.90
2018-12-25T00:28:40.095Z,59.50
2018-12-25T00:31:08.532Z,59.20
2018-12-25T00:33:37.004Z,59.20
2018-12-25T00:36:05.426Z,58.90
2018-12-25T00:38:33.899Z,59.20
2018-12-25T00:41:02.335Z,58.80
2018-12-25T00:43:30.790Z,59.20
2018-12-25T00:45:59.222Z,59.00
2018-12-25T00:48:27.756Z,58.40
2018-12-25T00:50:56.178Z,58.90
2018-12-25T00:53:24.687Z,58.40
2018-12-25T00:55:53.130Z,57.90
2018-12-25T00:58:21.647Z,58.20
2018-12-25T01:00:50.083Z,58.00
2018-12-25T01:03:18.538Z,57.80
2018-12-25T01:05:46.961Z,57.80
2018-12-25T01:08:15.416Z,57.70
2018-12-25T01:10:43.843Z,58.20
2018-12-25T01:13:12.363Z,58.20
2018-12-25T01:15:41.119Z,58.30
2018-12-25T01:18:09.551Z,58.10
2018-12-25T01:20:38.091Z,57.90
2018-12-25T01:23:06.526Z,58.00
2018-12-25T01:25:35.046Z,58.30
2018-12-25T01:28:05.107Z,58.50
2018-12-25T01:30:33.566Z,57.60
2018-12-25T01:33:02.000Z,58.30
2018-12-25T01:35:30.550Z,58.40
2018-12-25T01:37:59.128Z,59.10
2018-12-25T01:40:27.778Z,58.50
2018-12-25T01:42:56.215Z,58.80
2018-12-25T01:45:24.790Z,58.80
2018-12-25T01:47:53.215Z,59.40
2018-12-25T01:50:21.675Z,58.70
2018-12-25T01:52:50.135Z,58.70
2018-12-25T01:55:18.659Z,58.60
2018-12-25T01:57:47.096Z,59.00
2018-12-25T02:00:15.545Z,59.20
2018-12-25T02:02:44.057Z,58.90
2018-12-25T02:05:12.559Z,58.80
2018-12-25T02:07:41.201Z,58.90
2018-12-25T02:10:09.641Z,58.70
2018-12-25T02:12:38.133Z,59.00
2018-12-25T02:15:06.679Z,58.90
2018-12-25T02:17:35.138Z,58.80
2018-12-25T02:20:04.038Z,58.60
2018-12-25T02:22:32.487Z,58.60
2018-12-25T02:25:01.382Z,59.00
2018-12-25T02:27:29.830Z,58.90
2018-12-25T02:29:58.258Z,58.90
2018-12-25T02:32:26.757Z,58.80
2018-12-25T02:34:55.695Z,58.70
2018-12-25T02:37:25.215Z,59.00
2018-12-25T02:39:53.639Z,59.00
2018-12-25T02:42:22.084Z,58.80
2018-12-25T02:44:50.509Z,59.00
2018-12-25T02:47:18.969Z,59.30
2018-12-25T02:49:50.376Z,59.20
2018-12-25T02:52:17.591Z,59.20
2018-12-25T02:54:47.364Z,59.30
2018-12-25T02:57:15.812Z,58.00
2018-12-25T02:59:44.241Z,58.60
2018-12-25T03:02:12.688Z,58.80
2018-12-25T03:04:41.233Z,58.80
2018-12-25T03:07:09.754Z,58.60
2018-12-25T03:09:38.188Z,58.90
2018-12-25T03:12:06.636Z,58.70
2018-12-25T03:14:35.162Z,58.80
2018-12-25T03:17:03.598Z,58.70
2018-12-25T03:19:32.090Z,59.20
2018-12-25T03:22:00.551Z,59.00
2018-12-25T03:24:29.211Z,58.70
2018-12-25T03:26:57.741Z,58.80
2018-12-25T03:29:26.205Z,59.20
2018-12-25T03:31:54.669Z,58.90
2018-12-25T03:34:23.089Z,59.20
2018-12-25T03:36:51.855Z,59.50
2018-12-25T03:39:20.290Z,58.90
2018-12-25T03:41:48.864Z,59.10
2018-12-25T03:44:17.395Z,58.70
2018-12-25T03:46:45.824Z,58.70
2018-12-25T03:49:14.263Z,59.20
2018-12-25T03:51:42.696Z,59.20
2018-12-25T03:54:11.177Z,58.50
2018-12-25T03:56:39.676Z,59.20
2018-12-25T03:59:08.127Z,58.50
2018-12-25T04:01:36.615Z,59.00
2018-12-25T04:04:05.125Z,58.90
2018-12-25T04:06:33.700Z,58.60
2018-12-25T04:09:02.159Z,58.60
2018-12-25T04:11:30.656Z,59.20
2018-12-25T04:13:59.189Z,59.20
2018-12-25T04:16:27.743Z,59.10
2018-12-25T04:18:56.194Z,59.50
2018-12-25T04:21:24.631Z,59.40
2018-12-25T04:23:53.215Z,60.20
2018-12-25T04:26:21.661Z,59.70
2018-12-25T04:28:50.122Z,59.00
2018-12-25T04:31:18.622Z,59.50
2018-12-25T04:33:47.077Z,59.10
2018-12-25T04:36:15.518Z,59.20
2018-12-25T04:38:43.957Z,58.60
2018-12-25T04:41:12.384Z,59.40
2018-12-25T04:43:40.858Z,58.90
2018-12-25T04:46:09.386Z,59.60
2018-12-25T04:48:37.908Z,59.00
2018-12-25T04:51:06.403Z,59.50
2018-12-25T04:53:35.283Z,59.50
2018-12-25T04:56:03.780Z,59.50
2018-12-25T04:58:32.249Z,58.70
2018-12-25T05:01:00.766Z,59.30
2018-12-25T05:03:29.277Z,59.10
2018-12-25T05:05:57.744Z,59.00
2018-12-25T05:08:26.264Z,59.00
2018-12-25T05:10:54.715Z,59.10
2018-12-25T05:13:24.298Z,58.90
2018-12-25T05:15:52.767Z,59.50
2018-12-25T05:18:21.236Z,59.40
2018-12-25T05:20:49.770Z,59.50
2018-12-25T05:23:18.246Z,59.30
2018-12-25T05:25:46.707Z,58.60
2018-12-25T05:28:15.143Z,58.90
2018-12-25T05:30:43.702Z,59.00
2018-12-25T05:33:12.135Z,58.90
2018-12-25T05:35:40.590Z,58.90
2018-12-25T05:38:09.124Z,58.50
2018-12-25T05:40:37.564Z,58.70
2018-12-25T05:43:05.991Z,58.40
2018-12-25T05:45:34.562Z,58.50
2018-12-25T05:48:03.130Z,58.80
2018-12-25T05:50:31.608Z,59.10
2018-12-25T05:53:00.055Z,59.20
2018-12-25T05:55:28.516Z,59.40
2018-12-25T05:57:56.970Z,58.90
2018-12-25T06:00:25.477Z,59.50
2018-12-25T06:02:53.934Z,59.00
2018-12-25T06:05:22.502Z,59.40
2018-12-25T06:07:51.083Z,59.50
2018-12-25T06:10:19.572Z,59.90
2018-12-25T06:12:48.036Z,59.90
2018-12-25T06:15:16.467Z,60.00
2018-12-25T06:17:44.906Z,59.80
2018-12-25T06:20:13.330Z,60.60
2018-12-25T06:22:43.722Z,60.30
2018-12-25T06:25:11.940Z,60.40
2018-12-25T06:27:40.421Z,61.40
2018-12-25T06:30:08.848Z,61.10
2018-12-25T06:32:37.281Z,61.00
2018-12-25T06:35:05.885Z,60.60
2018-12-25T06:37:34.382Z,61.10
2018-12-25T06:40:03.069Z,60.80
2018-12-25T06:42:31.571Z,60.30
2018-12-25T06:45:00.267Z,60.40
2018-12-25T06:47:28.725Z,60.60
2018-12-25T06:49:57.215Z,60.40
2018-12-25T06:52:25.809Z,59.60
2018-12-25T06:54:54.242Z,60.20
2018-12-25T06:57:22.766Z,59.80
2018-12-25T06:59:51.197Z,59.90
2018-12-25T07:02:19.716Z,59.90
2018-12-25T07:04:48.164Z,60.00
2018-12-25T07:07:16.683Z,59.70
2018-12-25T07:09:45.129Z,59.00
2018-12-25T07:12:13.870Z,59.00
2018-12-25T07:14:42.365Z,59.30
2018-12-25T07:17:10.819Z,59.70
2018-12-25T07:19:39.298Z,59.10
2018-12-25T07:22:07.852Z,59.00
2018-12-25T07:24:36.275Z,59.30
2018-12-25T07:27:04.771Z,59.30
2018-12-25T07:29:33.344Z,59.40
2018-12-25T07:32:01.980Z,58.50
2018-12-25T07:34:30.858Z,58.20
2018-12-25T07:36:59.585Z,58.30
2018-12-25T07:39:28.085Z,58.90
2018-12-25T07:41:56.525Z,58.90
2018-12-25T07:44:25.242Z,58.90
2018-12-25T07:46:53.713Z,58.40
2018-12-25T07:49:22.174Z,58.30
2018-12-25T07:51:51.102Z,59.10
2018-12-25T07:54:19.651Z,59.10
2018-12-25T07:56:48.119Z,59.50
2018-12-25T07:59:16.710Z,58.80
2018-12-25T08:01:45.318Z,59.10
2018-12-25T08:04:13.769Z,59.10
2018-12-25T08:06:42.208Z,58.70
2018-12-25T08:09:10.763Z,58.70
2018-12-25T08:11:39.342Z,59.00
2018-12-25T08:14:07.831Z,58.50
2018-12-25T08:16:36.672Z,58.10
2018-12-25T08:19:05.201Z,58.80
2018-12-25T08:21:33.697Z,58.70
2018-12-25T08:24:02.301Z,59.20
2018-12-25T08:26:30.742Z,59.50
2018-12-25T08:29:00.915Z,58.90
2018-12-25T08:31:32.732Z,59.00
2018-12-25T08:34:01.295Z,59.20
2018-12-25T08:36:29.792Z,59.20
2018-12-25T08:38:58.258Z,59.20
2018-12-25T08:41:26.721Z,59.30
2018-12-25T08:43:55.167Z,59.20
2018-12-25T08:46:23.709Z,59.30
2018-12-25T08:48:52.160Z,58.90
2018-12-25T08:51:20.678Z,59.00
2018-12-25T08:53:49.186Z,58.70
2018-12-25T08:56:17.779Z,58.60
2018-12-25T08:58:46.201Z,59.00
2018-12-25T09:01:14.668Z,58.90
2018-12-25T09:03:43.160Z,59.20
2018-12-25T09:06:11.616Z,58.80
2018-12-25T09:08:40.046Z,58.80
2018-12-25T09:11:08.486Z,58.40
2018-12-25T09:13:36.995Z,58.70
2018-12-25T09:16:05.521Z,58.70
2018-12-25T09:18:34.105Z,58.70
2018-12-25T09:21:02.566Z,58.60
2018-12-25T09:23:31.055Z,58.30
2018-12-25T09:25:59.725Z,58.30
2018-12-25T09:28:28.301Z,58.60
2018-12-25T09:30:56.866Z,58.20
2018-12-25T09:33:25.488Z,58.10
2018-12-25T09:35:54.180Z,58.20
2018-12-25T09:38:22.887Z,58.60
2018-12-25T09:40:51.481Z,58.40
2018-12-25T09:43:19.945Z,58.50
2018-12-25T09:45:48.403Z,58.30
2018-12-25T09:48:16.839Z,57.90
2018-12-25T09:50:45.758Z,58.00
2018-12-25T09:53:15.025Z,57.30
2018-12-25T09:55:43.517Z,57.10
2018-12-25T09:58:12.006Z,57.80
2018-12-25T10:00:40.442Z,57.60
2018-12-25T10:03:08.945Z,57.50
2018-12-25T10:05:37.738Z,57.40
2018-12-25T10:08:06.262Z,57.20
2018-12-25T10:10:34.794Z,57.70
2018-12-25T10:13:03.689Z,57.80
2018-12-25T10:15:32.260Z,57.50
2018-12-25T10:18:00.816Z,58.00
2018-12-25T10:20:29.379Z,57.50
2018-12-25T10:22:57.875Z,57.50
2018-12-25T10:25:26.387Z,57.50
2018-12-25T10:27:54.864Z,57.40
2018-12-25T10:30:23.359Z,57.50
2018-12-25T10:32:51.982Z,57.20
2018-12-25T10:35:20.406Z,57.20
2018-12-25T10:37:48.961Z,57.20
2018-12-25T10:40:17.394Z,56.90
2018-12-25T10:42:45.927Z,56.80
2018-12-25T10:45:14.458Z,56.80
2018-12-25T10:47:42.911Z,57.10
2018-12-25T10:50:11.370Z,56.80
2018-12-25T10:52:39.832Z,56.70
2018-12-25T10:55:08.338Z,56.60
2018-12-25T10:57:37.006Z,56.90
2018-12-25T11:00:11.398Z,56.40
2018-12-25T11:02:41.531Z,56.60
2018-12-25T11:05:10.009Z,56.10
2018-12-25T11:07:38.478Z,56.00
2018-12-25T11:10:08.278Z,56.00
2018-12-25T11:12:36.843Z,56.20
2018-12-25T11:15:07.040Z,55.90
2018-12-25T11:17:35.516Z,56.30
2018-12-25T11:20:11.348Z,55.70
2018-12-25T11:22:35.860Z,55.80
2018-12-25T11:25:04.539Z,55.80
2018-12-25T11:27:35.369Z,56.30
2018-12-25T11:30:04.382Z,55.20
2018-12-25T11:32:33.155Z,55.30
2018-12-25T11:35:01.720Z,55.40
2018-12-25T11:37:30.155Z,55.90
2018-12-25T11:39:59.003Z,55.50
2018-12-25T11:42:27.472Z,55.40
2018-12-25T11:44:56.366Z,54.90
2018-12-25T11:47:25.013Z,55.00
2018-12-25T11:49:53.563Z,55.50
2018-12-25T11:52:28.327Z,55.00
2018-12-25T11:54:52.564Z,54.80
2018-12-25T11:57:21.119Z,54.60
2018-12-25T11:59:49.776Z,54.60
2018-12-25T12:02:18.411Z,54.80
2018-12-25T12:04:47.878Z,54.70
2018-12-25T12:07:16.694Z,54.80
2018-12-25T12:09:45.311Z,54.70
2018-12-25T12:12:14.029Z,54.40
2018-12-25T12:14:42.554Z,53.50
2018-12-25T12:17:11.034Z,54.10
2018-12-25T12:19:39.507Z,53.60
2018-12-25T12:22:08.195Z,54.30
2018-12-25T12:24:36.658Z,53.70
2018-12-25T12:27:05.095Z,53.70
2018-12-25T12:29:33.662Z,53.60
2018-12-25T12:32:02.497Z,53.90
2018-12-25T12:34:31.216Z,53.60
2018-12-25T12:36:59.700Z,54.10
2018-12-25T12:39:28.121Z,54.10
2018-12-25T12:41:56.583Z,54.10
2018-12-25T12:44:26.405Z,53.60
2018-12-25T12:46:54.929Z,53.90
2018-12-25T12:49:23.454Z,53.70
2018-12-25T12:51:51.996Z,53.60
2018-12-25T12:54:20.429Z,53.50
2018-12-25T12:56:48.979Z,53.60
2018-12-25T12:59:17.444Z,53.80
2018-12-25T13:01:45.967Z,53.70
2018-12-25T13:04:14.463Z,53.80
2018-12-25T13:06:42.959Z,53.40
2018-12-25T13:09:11.391Z,53.50
2018-12-25T13:11:39.854Z,54.00
2018-12-25T13:14:08.562Z,53.40
2018-12-25T13:16:37.013Z,53.40
2018-12-25T13:19:05.429Z,53.60
2018-12-25T13:21:33.972Z,53.30
2018-12-25T13:24:02.945Z,53.30
2018-12-25T13:26:31.483Z,52.80
2018-12-25T13:28:59.967Z,52.70
2018-12-25T13:31:28.720Z,52.70
2018-12-25T13:33:57.235Z,52.60
2018-12-25T13:36:25.693Z,52.60
2018-12-25T13:38:54.142Z,52.80
2018-12-25T13:41:22.595Z,52.50
2018-12-25T13:43:51.803Z,52.30
2018-12-25T13:46:20.320Z,52.80
2018-12-25T13:48:48.764Z,52.20
2018-12-25T13:51:17.198Z,52.20
2018-12-25T13:53:45.669Z,52.00
2018-12-25T13:56:14.108Z,51.90
2018-12-25T13:58:42.586Z,52.10
2018-12-25T14:01:11.010Z,52.00
2018-12-25T14:03:39.470Z,51.90
2018-12-25T14:06:07.928Z,51.40
2018-12-25T14:08:36.463Z,51.60
2018-12-25T14:11:04.940Z,51.90
2018-12-25T14:13:33.405Z,52.30
2018-12-25T14:16:01.922Z,52.00
2018-12-25T14:18:30.378Z,52.40
2018-12-25T14:20:58.863Z,52.30
2018-12-25T14:23:27.498Z,52.10
2018-12-25T14:25:56.004Z,52.50
2018-12-25T14:28:24.472Z,52.30
2018-12-25T14:30:52.890Z,52.40
2018-12-25T14:33:21.415Z,52.80
2018-12-25T14:35:49.944Z,52.20
2018-12-25T14:38:18.538Z,52.70
2018-12-25T14:40:47.141Z,52.20
2018-12-25T14:43:15.588Z,52.60
2018-12-25T14:45:44.028Z,52.60
2018-12-25T14:48:12.481Z,52.60
2018-12-25T14:50:42.442Z,52.40
2018-12-25T14:53:10.939Z,52.80
2018-12-25T14:55:39.370Z,52.90
2018-12-25T14:58:07.907Z,52.80
2018-12-25T15:00:36.415Z,52.80
2018-12-25T15:03:04.864Z,53.00
2018-12-25T15:05:33.298Z,52.60
2018-12-25T15:08:01.827Z,52.90
2018-12-25T15:10:30.484Z,52.70
2018-12-25T15:12:59.006Z,53.30
2018-12-25T15:15:27.655Z,53.10
2018-12-25T15:17:56.172Z,52.70
2018-12-25T15:20:24.729Z,53.20
2018-12-25T15:22:53.179Z,52.70
2018-12-25T15:25:22.678Z,53.00
2018-12-25T15:27:51.153Z,52.70
2018-12-25T15:30:19.619Z,52.60
2018-12-25T15:32:48.047Z,52.70
2018-12-25T15:35:16.502Z,52.90
2018-12-25T15:37:44.942Z,53.00
2018-12-25T15:40:13.465Z,53.00
2018-12-25T15:42:41.987Z,53.40
2018-12-25T15:45:10.775Z,52.90
2018-12-25T15:47:39.236Z,53.00
2018-12-25T15:50:08.267Z,53.30
2018-12-25T15:52:36.793Z,53.60
2018-12-25T15:55:06.465Z,53.00
2018-12-25T15:57:34.973Z,53.20
2018-12-25T16:00:04.901Z,53.30
2018-12-25T16:02:33.412Z,52.90
2018-12-25T16:05:01.959Z,53.30
2018-12-25T16:07:30.574Z,53.50
2018-12-25T16:09:59.337Z,53.10
2018-12-25T16:12:28.144Z,53.10
2018-12-25T16:14:56.590Z,53.10
2018-12-25T16:17:25.018Z,53.00
2018-12-25T16:19:53.490Z,52.90
2018-12-25T16:22:22.111Z,53.10
2018-12-25T16:24:50.623Z,53.20
2018-12-25T16:27:19.079Z,53.80
2018-12-25T16:29:47.550Z,53.50
2018-12-25T16:32:15.967Z,53.70
2018-12-25T16:34:44.454Z,53.20
2018-12-25T16:37:12.899Z,53.50
2018-12-25T16:39:41.371Z,53.10
2018-12-25T16:42:09.883Z,53.00
2018-12-25T16:44:38.343Z,53.40
2018-12-25T16:47:06.798Z,53.10
2018-12-25T16:49:35.350Z,53.60
2018-12-25T16:52:03.817Z,53.60
2018-12-25T16:54:32.268Z,53.70
2018-12-25T16:57:00.843Z,53.40
2018-12-25T16:59:29.300Z,54.10
2018-12-25T17:01:57.804Z,53.70
2018-12-25T17:04:26.296Z,53.50
2018-12-25T17:06:54.798Z,53.40
2018-12-25T17:09:23.368Z,53.80
2018-12-25T17:11:51.969Z,53.50
2018-12-25T17:14:20.473Z,53.60
2018-12-25T17:16:48.998Z,53.30
2018-12-25T17:19:17.424Z,53.20
2018-12-25T17:21:45.890Z,53.10
2018-12-25T17:24:14.390Z,53.30
2018-12-25T17:26:42.990Z,53.10
2018-12-25T17:29:11.481Z,53.30
2018-12-25T17:31:40.102Z,53.30
2018-12-25T17:34:08.898Z,53.30
2018-12-25T17:36:37.366Z,53.50
2018-12-25T17:39:07.206Z,53.20
2018-12-25T17:41:35.809Z,53.10
2018-12-25T17:44:04.502Z,53.00
2018-12-25T17:46:33.144Z,53.00
2018-12-25T17:49:01.627Z,53.00
2018-12-25T17:51:30.126Z,52.50
2018-12-25T17:53:58.918Z,52.60
2018-12-25T17:56:27.482Z,52.60
2018-12-25T17:58:56.398Z,53.00
2018-12-25T18:01:25.056Z,53.10
2018-12-25T18:03:53.541Z,52.80
2018-12-25T18:06:22.006Z,53.40
2018-12-25T18:08:50.463Z,53.10
2018-12-25T18:11:18.963Z,53.00
2018-12-25T18:13:47.453Z,53.40
2018-12-25T18:16:15.977Z,53.50
2018-12-25T18:18:44.493Z,53.70
2018-12-25T18:21:13.029Z,53.60
2018-12-25T18:23:41.687Z,53.60
2018-12-25T18:26:10.157Z,54.10
2018-12-25T18:28:38.635Z,53.70
2018-12-25T18:31:07.074Z,54.60
2018-12-25T18:33:35.616Z,54.30
2018-12-25T18:36:04.870Z,54.90
2018-12-25T18:38:33.496Z,54.70
2018-12-25T18:41:01.918Z,55.30
2018-12-25T18:43:30.467Z,55.40
2018-12-25T18:45:58.958Z,55.10
2018-12-25T18:48:27.439Z,55.70
2018-12-25T18:50:55.913Z,55.90
2018-12-25T18:53:24.415Z,55.70
2018-12-25T18:55:52.851Z,56.00
2018-12-25T18:58:21.498Z,55.80
2018-12-25T19:00:49.927Z,55.60
2018-12-25T19:03:18.389Z,55.50
2018-12-25T19:05:46.810Z,55.40
2018-12-25T19:08:15.274Z,55.60
2018-12-25T19:10:43.728Z,56.10
2018-12-25T19:13:12.209Z,56.40
2018-12-25T19:15:40.816Z,55.80
2018-12-25T19:18:09.327Z,56.30
2018-12-25T19:20:37.758Z,55.90
2018-12-25T19:23:06.221Z,56.20
2018-12-25T19:25:34.730Z,56.00
2018-12-25T19:28:03.261Z,55.80
2018-12-25T19:30:31.840Z,55.90
2018-12-25T19:33:00.318Z,55.90
2018-12-25T19:35:28.769Z,56.50
2018-12-25T19:37:57.189Z,56.60
2018-12-25T19:40:25.985Z,56.00
2018-12-25T19:42:54.554Z,56.60
2018-12-25T19:45:26.354Z,56.50
2018-12-25T19:47:55.171Z,56.10
2018-12-25T19:50:24.503Z,56.50
2018-12-25T19:52:53.096Z,56.30
2018-12-25T19:55:21.600Z,56.10
2018-12-25T19:58:09.752Z,55.80
2018-12-25T20:00:38.178Z,55.20
2018-12-25T20:03:07.364Z,55.70
2018-12-25T20:05:48.168Z,56.10
2018-12-25T20:08:22.775Z,56.20
2018-12-25T20:10:59.966Z,56.10
2018-12-25T20:13:49.265Z,55.90
2018-12-25T20:16:26.715Z,56.00
2018-12-25T20:19:07.562Z,56.00
2018-12-25T20:22:13.783Z,55.50
2018-12-25T20:24:52.675Z,55.60
2018-12-25T20:27:33.612Z,56.20
2018-12-25T20:30:21.954Z,56.20
2018-12-25T20:33:26.939Z,56.20
2018-12-25T20:36:17.390Z,56.50
2018-12-25T20:39:06.563Z,56.50
2018-12-25T20:41:58.159Z,56.30
2018-12-25T20:44:44.798Z,56.70
2018-12-25T20:47:46.679Z,56.40
2018-12-25T20:50:33.326Z,57.00
2018-12-25T20:53:34.383Z,57.00
2018-12-25T20:56:28.890Z,57.40
2018-12-25T20:59:15.244Z,57.40
2018-12-25T21:02:21.787Z,56.90
2018-12-25T21:05:11.502Z,57.10
2018-12-25T21:07:49.355Z,57.70
2018-12-25T21:10:40.060Z,57.40
2018-12-25T21:13:29.801Z,57.40
2018-12-25T21:16:26.965Z,56.60
2018-12-25T21:19:14.378Z,56.40
2018-12-25T21:22:06.094Z,56.90
2018-12-25T21:25:11.342Z,57.70
2018-12-25T21:27:38.781Z,56.60
2018-12-25T21:30:07.502Z,56.80
2018-12-25T21:32:36.508Z,57.30
2018-12-25T21:35:08.130Z,57.00
2018-12-25T21:37:36.914Z,57.20
2018-12-25T21:40:07.121Z,57.30
2018-12-25T21:42:36.075Z,57.20
2018-12-25T21:45:06.516Z,57.30
2018-12-25T21:47:35.054Z,57.40
2018-12-25T21:50:04.347Z,56.80
2018-12-25T21:52:33.433Z,57.40
2018-12-25T21:55:02.264Z,56.80
2018-12-25T21:57:30.785Z,57.20
2018-12-25T21:59:59.399Z,57.30
2018-12-25T22:02:28.045Z,56.80
2018-12-25T22:04:58.062Z,56.90
2018-12-25T22:07:26.728Z,56.80
2018-12-25T22:09:56.239Z,56.60
2018-12-25T22:12:24.749Z,56.30
2018-12-25T22:14:53.232Z,55.90
2018-12-25T22:17:21.719Z,56.10
2018-12-25T22:19:50.375Z,56.20
2018-12-25T22:22:18.890Z,56.00
2018-12-25T22:24:47.349Z,56.50
2018-12-25T22:27:15.955Z,56.70
2018-12-25T22:29:44.393Z,56.70
2018-12-25T22:32:13.223Z,56.40
2018-12-25T22:34:42.286Z,56.80
2018-12-25T22:37:14.177Z,56.90
2018-12-25T22:39:46.147Z,56.30
2018-12-25T22:42:14.597Z,57.00
2018-12-25T22:44:43.116Z,56.60
2018-12-25T22:47:11.622Z,57.30
2018-12-25T22:49:40.103Z,57.90
2018-12-25T22:52:08.655Z,57.90
2018-12-25T22:54:37.435Z,57.70
2018-12-25T22:57:05.942Z,58.70
2018-12-25T22:59:34.390Z,59.20
2018-12-25T23:02:02.921Z,59.00
2018-12-25T23:04:31.370Z,58.70
2018-12-25T23:07:00.120Z,59.30
2018-12-25T23:09:28.589Z,58.90
2018-12-25T23:11:57.026Z,59.60
2018-12-25T23:14:26.023Z,59.80
2018-12-25T23:16:54.460Z,59.20
2018-12-25T23:19:22.911Z,59.80
2018-12-25T23:21:53.477Z,59.00
2018-12-25T23:24:21.664Z,59.10
2018-12-25T23:26:50.084Z,59.50
2018-12-25T23:29:18.531Z,59.30
2018-12-25T23:31:46.954Z,58.90
2018-12-25T23:34:15.402Z,59.20
2018-12-25T23:36:43.825Z,58.70
2018-12-25T23:39:12.576Z,59.30
2018-12-25T23:41:41.009Z,59.10
2018-12-25T23:44:09.506Z,58.90
2018-12-25T23:46:38.098Z,58.70
2018-12-25T23:49:06.631Z,58.30
2018-12-25T23:51:35.180Z,58.20
2018-12-25T23:54:03.709Z,58.40
2018-12-25T23:56:32.267Z,58.10
2018-12-25T23:59:00.784Z,58.20
